Mountain Brook, Alabama
Current Conditions -  °F | °C
As of 8:53 AM on Saturday 22 Nov 2014 (Local Time) from KBHM Reporting Station
Clear Clear  
Wind Chill: 52°   Ceiling: Unl
Heat Index: 52°   Visibility: 10mi
Dew Point: 35°   Wind: 9mph
Humidity: 53%   Direction: 100°E
Pressure: 30.39"   Gusts: 16mph
Location:  33.5°N, 86.75°W
Report Text: KBHM 221453Z 10008G14KT 10SM CLR 11/02 A3039 RMK AO2 SLP289 T01110017 58002
Loading
Personal Weather Stations






























Interactive Weather Map New forecast layout! Learn more

10-Day Weather Forecast

Advertisements
Track Severe Weather on mobile